createdAt,value
2023-04-02T00:00:19.214Z,3.00
2023-04-02T00:04:26.445Z,3.00
2023-04-02T00:08:41.178Z,3.00
2023-04-02T00:13:11.930Z,3.10
2023-04-02T00:17:17.691Z,3.00
2023-04-02T00:21:31.213Z,3.00
2023-04-02T00:25:45.768Z,3.00
2023-04-02T00:29:57.055Z,3.10
2023-04-02T00:34:07.066Z,3.10
2023-04-02T00:38:26.056Z,3.10
2023-04-02T00:42:31.660Z,3.10
2023-04-02T00:46:46.966Z,3.10
2023-04-02T00:50:53.483Z,3.10
2023-04-02T00:55:10.454Z,3.10
2023-04-02T00:59:36.892Z,3.10
2023-04-02T01:03:43.938Z,3.10
2023-04-02T01:08:02.366Z,3.10
2023-04-02T01:12:33.740Z,3.10
2023-04-02T01:16:55.383Z,3.10
2023-04-02T01:21:16.076Z,3.10
2023-04-02T01:25:28.517Z,3.10
2023-04-02T01:29:37.215Z,3.10
2023-04-02T01:33:42.624Z,3.10
2023-04-02T01:37:53.570Z,3.10
2023-04-02T01:42:06.402Z,3.20
2023-04-02T01:46:31.897Z,3.20
2023-04-02T01:50:39.449Z,3.20
2023-04-02T01:54:47.458Z,3.20
2023-04-02T01:58:53.378Z,3.30
2023-04-02T02:03:01.042Z,3.30
2023-04-02T02:07:14.384Z,3.30
2023-04-02T02:11:27.604Z,3.30
2023-04-02T02:15:34.429Z,3.30
2023-04-02T02:19:51.633Z,3.30
2023-04-02T02:23:57.768Z,3.30
2023-04-02T02:28:13.581Z,3.40
2023-04-02T02:32:21.074Z,3.40
2023-04-02T02:36:33.453Z,3.40
2023-04-02T02:40:41.178Z,3.50
2023-04-02T02:44:48.187Z,3.50
2023-04-02T02:48:55.714Z,3.50
2023-04-02T02:53:11.042Z,3.60
2023-04-02T02:57:21.857Z,3.50
2023-04-02T03:01:29.788Z,3.50
2023-04-02T03:05:36.440Z,3.50
2023-04-02T03:10:14.631Z,3.60
2023-04-02T03:14:32.880Z,3.60
2023-04-02T03:18:51.119Z,3.70
2023-04-02T03:23:03.313Z,3.70
2023-04-02T03:27:34.350Z,3.70
2023-04-02T03:31:45.360Z,3.80
2023-04-02T03:36:01.379Z,3.70
2023-04-02T03:40:22.718Z,3.70
2023-04-02T03:44:33.459Z,3.80
2023-04-02T03:48:45.011Z,3.80
2023-04-02T03:52:51.037Z,3.80
2023-04-02T03:56:57.566Z,3.90
2023-04-02T04:01:27.390Z,3.90
2023-04-02T04:05:38.926Z,3.90
2023-04-02T04:09:47.190Z,3.90
2023-04-02T04:14:03.021Z,4.00
2023-04-02T04:18:51.770Z,4.10
2023-04-02T04:23:29.900Z,4.10
2023-04-02T04:28:13.672Z,4.10
2023-04-02T04:32:42.743Z,4.10
2023-04-02T04:36:54.775Z,4.10
2023-04-02T04:41:05.746Z,4.10
2023-04-02T04:45:36.758Z,4.20
2023-04-02T04:49:53.153Z,4.20
2023-04-02T04:53:58.636Z,4.10
2023-04-02T04:58:32.355Z,4.10
2023-04-02T05:02:48.774Z,4.10
2023-04-02T05:07:06.158Z,4.10
2023-04-02T05:12:01.524Z,4.10
2023-04-02T05:16:28.915Z,4.20
2023-04-02T05:21:01.419Z,4.10
2023-04-02T05:25:21.766Z,4.10
2023-04-02T05:29:34.632Z,4.10
2023-04-02T05:33:45.469Z,4.10
2023-04-02T05:37:51.364Z,4.20
2023-04-02T05:42:05.617Z,4.20
2023-04-02T05:46:46.721Z,4.30
2023-04-02T05:50:56.268Z,4.20
2023-04-02T05:55:37.517Z,4.20
2023-04-02T05:59:54.837Z,4.30
2023-04-02T06:04:26.975Z,4.40
2023-04-02T06:08:41.030Z,4.40
2023-04-02T06:13:03.786Z,4.50
2023-04-02T06:17:15.334Z,4.50
2023-04-02T06:21:21.841Z,4.50
2023-04-02T06:25:34.269Z,4.60
2023-04-02T06:29:44.336Z,4.60
2023-04-02T06:33:52.375Z,4.70
2023-04-02T06:38:01.579Z,4.60
2023-04-02T06:42:13.168Z,4.70
2023-04-02T06:46:42.505Z,4.80
2023-04-02T06:51:07.729Z,4.90
2023-04-02T06:55:57.764Z,5.10
2023-04-02T07:00:03.969Z,5.40
2023-04-02T07:04:10.701Z,5.40
2023-04-02T07:08:16.662Z,5.40
2023-04-02T07:12:26.365Z,5.50
2023-04-02T07:16:33.808Z,5.60
2023-04-02T07:20:41.689Z,5.70
2023-04-02T07:24:47.296Z,5.80
2023-04-02T07:28:53.909Z,5.70
2023-04-02T07:32:59.492Z,5.70
2023-04-02T07:37:05.418Z,5.90
2023-04-02T07:41:11.951Z,6.20
2023-04-02T07:45:17.539Z,6.20
2023-04-02T07:49:23.172Z,6.30
2023-04-02T07:53:37.873Z,6.20
2023-04-02T07:57:55.883Z,6.00
2023-04-02T08:02:02.569Z,6.00
2023-04-02T08:06:08.218Z,6.10
2023-04-02T08:10:13.762Z,6.20
2023-04-02T08:14:19.290Z,6.30
2023-04-02T08:18:25.631Z,6.40
2023-04-02T08:22:31.574Z,6.60
2023-04-02T08:26:37.684Z,6.80
2023-04-02T08:30:44.500Z,6.90
2023-04-02T08:34:50.083Z,6.90
2023-04-02T08:38:55.723Z,6.90
2023-04-02T08:43:16.412Z,6.90
2023-04-02T08:47:26.009Z,7.10
2023-04-02T08:51:38.033Z,7.20
2023-04-02T08:56:19.099Z,7.10
2023-04-02T09:00:45.722Z,7.20
2023-04-02T09:04:51.876Z,7.20
2023-04-02T09:08:58.877Z,7.10
2023-04-02T09:13:16.841Z,7.30
2023-04-02T09:17:25.811Z,7.40
2023-04-02T09:21:34.489Z,7.20
2023-04-02T09:25:57.329Z,7.10
2023-04-02T09:30:51.346Z,7.20
2023-04-02T09:35:33.576Z,7.50
2023-04-02T09:39:39.155Z,7.40
2023-04-02T09:43:44.945Z,7.30
2023-04-02T09:47:52.751Z,7.40
2023-04-02T09:52:26.540Z,7.60
2023-04-02T09:56:35.511Z,7.80
2023-04-02T10:00:51.300Z,7.80
2023-04-02T10:05:03.426Z,7.90
2023-04-02T10:09:30.711Z,7.90
2023-04-02T10:14:00.780Z,7.80
2023-04-02T10:18:41.711Z,7.80
2023-04-02T10:22:47.588Z,8.20
2023-04-02T10:27:37.714Z,8.20
2023-04-02T10:32:08.938Z,8.00
2023-04-02T10:36:41.946Z,8.20
2023-04-02T10:41:27.126Z,8.40
2023-04-02T10:45:41.828Z,8.50
2023-04-02T10:49:55.749Z,8.30
2023-04-02T10:54:55.768Z,8.20
2023-04-02T10:59:27.733Z,8.50
2023-04-02T11:03:57.819Z,8.50
2023-04-02T11:08:24.155Z,8.50
2023-04-02T11:12:39.792Z,8.70
2023-04-02T11:16:50.660Z,8.90
2023-04-02T11:21:21.706Z,9.00
2023-04-02T11:25:27.479Z,9.00
2023-04-02T11:29:39.801Z,9.00
2023-04-02T11:33:46.794Z,8.90
2023-04-02T11:37:57.882Z,9.00
2023-04-02T11:42:25.462Z,9.10
2023-04-02T11:51:36.242Z,9.00
2023-04-02T11:55:47.951Z,8.90
2023-04-02T12:00:34.441Z,9.00
2023-04-02T12:04:54.945Z,9.00
2023-04-02T12:09:25.402Z,8.90
2023-04-02T12:13:40.025Z,8.90
2023-04-02T14:24:40.385Z,9.80
2023-04-02T14:29:26.984Z,9.80
2023-04-02T14:33:57.660Z,9.50
2023-04-02T14:38:33.901Z,9.60
2023-04-02T14:43:03.714Z,9.60
2023-04-02T14:47:23.259Z,10.00
2023-04-02T14:51:41.789Z,10.30
2023-04-02T14:55:50.094Z,10.30
2023-04-02T15:00:21.004Z,10.30
2023-04-02T15:04:43.958Z,10.20
2023-04-02T15:09:14.269Z,10.40
2023-04-02T15:13:27.542Z,10.30
2023-04-02T15:17:33.164Z,10.10
2023-04-02T15:22:06.958Z,9.90
2023-04-02T15:26:58.326Z,9.80
2023-04-02T15:31:13.152Z,10.00
2023-04-02T15:35:46.272Z,10.00
2023-04-02T15:40:07.980Z,10.00
2023-04-02T15:44:17.400Z,10.00
2023-04-02T15:49:09.990Z,10.10
2023-04-02T15:53:33.150Z,10.00
2023-04-02T15:58:23.712Z,9.70
2023-04-02T16:03:02.690Z,9.80
2023-04-02T16:07:23.893Z,9.70
2023-04-02T16:11:29.595Z,9.60
2023-04-02T16:15:42.420Z,9.50
2023-04-02T16:20:25.048Z,9.50
2023-04-02T16:24:30.604Z,9.40
2023-04-02T16:28:55.577Z,9.20
2023-04-02T16:33:29.611Z,9.20
2023-04-02T16:38:02.159Z,9.30
2023-04-02T16:42:38.132Z,9.20
2023-04-02T16:46:52.290Z,9.00
2023-04-02T16:51:37.177Z,8.90
2023-04-02T16:56:23.323Z,8.60
2023-04-02T17:00:31.517Z,8.20
2023-04-02T17:05:31.491Z,7.90
2023-04-02T17:09:48.959Z,8.00
2023-04-02T17:14:06.491Z,7.80
2023-04-02T17:18:20.149Z,7.60
2023-04-02T17:22:25.770Z,7.30
2023-04-02T17:26:35.136Z,7.30
2023-04-02T17:30:56.576Z,7.10
2023-04-02T17:35:44.984Z,6.90
2023-04-02T17:39:56.387Z,6.70
2023-04-02T17:44:14.741Z,6.60
2023-04-02T17:48:46.922Z,6.60
2023-04-02T17:52:58.322Z,6.50
2023-04-02T17:57:40.444Z,6.30
2023-04-02T18:02:06.351Z,6.20
2023-04-02T18:06:55.265Z,6.10
2023-04-02T18:11:37.740Z,5.90
2023-04-02T18:15:57.060Z,5.90
2023-04-02T18:20:18.802Z,5.90
2023-04-02T18:24:51.577Z,5.90
2023-04-02T18:29:31.148Z,5.70
2023-04-02T18:34:08.045Z,5.70
2023-04-02T18:38:34.628Z,5.60
2023-04-02T18:43:16.896Z,5.60
2023-04-02T18:47:40.559Z,5.40
2023-04-02T18:51:55.873Z,5.30
2023-04-02T18:56:06.956Z,5.20
2023-04-02T19:00:34.624Z,5.20
2023-04-02T19:04:58.526Z,5.20
2023-04-02T19:09:13.398Z,5.10
2023-04-02T19:13:20.816Z,5.00
2023-04-02T19:17:45.991Z,4.90
2023-04-02T19:21:51.642Z,4.90
2023-04-02T19:26:16.169Z,4.80
2023-04-02T19:30:42.749Z,4.90
2023-04-02T19:35:01.926Z,4.80
2023-04-02T19:39:57.418Z,4.80
2023-04-02T19:44:03.146Z,4.80
2023-04-02T19:48:23.661Z,4.70
2023-04-02T19:52:29.210Z,4.60
2023-04-02T19:56:34.815Z,4.60
2023-04-02T20:00:40.502Z,4.60
2023-04-02T20:04:46.354Z,4.60
2023-04-02T20:08:51.969Z,4.60
2023-04-02T20:12:57.499Z,4.50
2023-04-02T20:17:03.265Z,4.50
2023-04-02T20:21:09.900Z,4.50
2023-04-02T20:25:16.106Z,4.40
2023-04-02T20:29:22.948Z,4.40
2023-04-02T20:33:28.616Z,4.40
2023-04-02T20:37:34.227Z,4.40
2023-04-02T20:41:39.845Z,4.30
2023-04-02T20:45:55.176Z,4.30
2023-04-02T20:50:01.040Z,4.20
2023-04-02T20:54:06.564Z,4.30
2023-04-02T20:58:17.343Z,4.10
2023-04-02T21:02:22.921Z,4.00
2023-04-02T21:06:32.281Z,3.90
2023-04-02T21:10:38.699Z,3.90
2023-04-02T21:14:44.162Z,3.80
2023-04-02T21:18:53.806Z,3.70
2023-04-02T21:22:59.271Z,3.60
2023-04-02T21:27:04.828Z,3.50
2023-04-02T21:31:15.558Z,3.60
2023-04-02T21:35:21.086Z,3.50
2023-04-02T21:39:27.224Z,3.40
2023-04-02T21:43:32.689Z,3.40
2023-04-02T21:47:38.284Z,3.30
2023-04-02T21:51:45.801Z,3.30
2023-04-02T21:56:00.926Z,3.20
2023-04-02T22:00:12.208Z,3.10
2023-04-02T22:04:21.390Z,3.00
2023-04-02T22:08:26.948Z,3.00
2023-04-02T22:12:32.616Z,2.90
2023-04-02T22:16:38.831Z,2.80
2023-04-02T22:20:45.176Z,2.70
2023-04-02T22:24:50.826Z,2.70
2023-04-02T22:28:56.320Z,2.60
2023-04-02T22:33:02.374Z,2.60
2023-04-02T22:37:07.941Z,2.50
2023-04-02T22:41:19.936Z,2.50
2023-04-02T22:45:25.714Z,2.40
2023-04-02T22:49:31.859Z,2.40
2023-04-02T22:53:38.409Z,2.30
2023-04-02T22:57:44.871Z,2.30
2023-04-02T23:01:50.394Z,2.20
2023-04-02T23:06:07.337Z,2.20
2023-04-02T23:10:12.865Z,2.10
2023-04-02T23:14:18.673Z,2.00
2023-04-02T23:18:24.325Z,2.00
2023-04-02T23:22:29.939Z,1.90
2023-04-02T23:26:35.637Z,1.90
2023-04-02T23:30:42.240Z,1.80
2023-04-02T23:34:48.938Z,1.70
2023-04-02T23:38:57.790Z,1.70
2023-04-02T23:43:03.320Z,1.70
2023-04-02T23:47:09.802Z,1.60
2023-04-02T23:51:15.465Z,1.50
2023-04-02T23:55:20.977Z,1.40
2023-04-02T23:59:26.685Z,1.40
